Time;durP1;ratioP1;P1;durP2;ratioP2;P2;SDS_P1;SDS_P2;PMS_P1;PMS_P2;Temp;Humidity;BMP_temperature;BMP_pressure;BME280_temperature;BME280_humidity;BME280_pressure;Samples;Min_cycle;Max_cycle;Signal;HPM_P1;HPM_P2
2023/12/15 00:00:51;;;;;;;;;;;;;;;5.54;100.00;102687.06;5019540;28;20409;-63
2023/12/15 00:03:17;;;;;;;;;;;;;;;5.56;100.00;102694.84;5020128;28;19921;-63
2023/12/15 00:05:42;;;;;;;;;;;;;;;5.52;100.00;102696.00;5015363;28;19920;-62
2023/12/15 00:08:07;;;;;;;;;;;;;;;5.50;100.00;102706.63;5021212;28;19921;-62
2023/12/15 00:10:32;;;;;;;;;;;;;;;5.52;100.00;102707.38;5023850;28;19928;-63
2023/12/15 00:12:58;;;;;;;;;;;;;;;5.50;100.00;102718.94;5018379;28;19927;-63
2023/12/15 00:15:23;;;;;;;;;;;;;;;5.49;100.00;102720.75;5016972;28;20035;-63
2023/12/15 00:17:48;;;;;;;;;;;;;;;5.50;100.00;102722.44;5019255;28;20676;-62
2023/12/15 00:20:13;;;;;;;;;;;;;;;5.50;100.00;102722.44;5021379;28;20299;-63
2023/12/15 00:22:39;;;;;;;;;;;;;;;5.49;100.00;102725.13;5017160;28;19927;-63
2023/12/15 00:25:04;;;;;;;;;;;;;;;5.50;100.00;102722.44;5013282;28;20001;-63
2023/12/15 00:27:29;;;;;;;;;;;;;;;5.50;100.00;102724.22;5008809;28;19933;-63
2023/12/15 00:29:54;;;;;;;;;;;;;;;5.50;100.00;102717.16;5015557;28;19932;-63
2023/12/15 00:32:20;;;;;;;;;;;;;;;5.53;100.00;102722.25;5008129;28;19921;-63
2023/12/15 00:34:45;;;;;;;;;;;;;;;5.54;100.00;102725.72;5019056;28;20618;-63
2023/12/15 00:37:10;;;;;;;;;;;;;;;5.54;100.00;102736.28;5023256;28;19913;-63
2023/12/15 00:39:36;;;;;;;;;;;;;;;5.53;100.00;102731.94;5016096;28;19920;-63
2023/12/15 00:42:01;;;;;;;;;;;;;;;5.54;100.00;102737.13;5017996;28;19913;-63
2023/12/15 00:44:26;;;;;;;;;;;;;;;5.55;100.00;102744.09;5021054;28;20409;-63
2023/12/15 00:46:52;;;;;;;;;;;;;;;5.55;100.00;102736.19;5009215;28;20349;-63
2023/12/15 00:49:17;;;;;;;;;;;;;;;5.56;100.00;102737.88;5007419;28;19924;-63
2023/12/15 00:51:42;;;;;;;;;;;;;;;5.58;100.00;102736.00;5009222;28;19975;-62
2023/12/15 00:54:07;;;;;;;;;;;;;;;5.57;100.00;102731.66;5012919;28;19921;-63
2023/12/15 00:56:32;;;;;;;;;;;;;;;5.59;100.00;102735.06;5017299;28;19986;-63
2023/12/15 00:59:00;;;;;;;;;;;;;;;5.59;100.00;102744.75;5019221;28;20487;-63
2023/12/15 01:01:25;;;;;;;;;;;;;;;5.62;100.00;102739.28;5012410;28;19928;-63
2023/12/15 01:03:51;;;;;;;;;;;;;;;5.62;100.00;102746.34;5011349;28;19917;-63
2023/12/15 01:06:16;;;;;;;;;;;;;;;5.62;100.00;102746.34;5006464;28;20306;-62
2023/12/15 01:08:41;;;;;;;;;;;;;;;5.62;100.00;102741.06;5007350;28;19921;-63
2023/12/15 01:11:06;;;;;;;;;;;;;;;5.62;100.00;102744.56;5009689;28;19924;-63
2023/12/15 01:13:32;;;;;;;;;;;;;;;5.60;100.00;102755.19;5021288;28;20298;-63
2023/12/15 01:15:57;;;;;;;;;;;;;;;5.61;100.00;102753.41;5018382;28;19929;-63
2023/12/15 01:18:22;;;;;;;;;;;;;;;5.62;100.00;102754.25;5017292;28;19921;-63
2023/12/15 01:20:47;;;;;;;;;;;;;;;5.63;100.00;102759.44;5020069;28;20302;-63
2023/12/15 01:23:13;;;;;;;;;;;;;;;5.64;100.00;102760.28;5017862;28;19922;-63
2023/12/15 01:25:38;;;;;;;;;;;;;;;5.62;100.00;102762.16;5012689;28;19921;-64
2023/12/15 01:28:03;;;;;;;;;;;;;;;5.63;100.00;102764.69;5020078;28;19925;-63
2023/12/15 01:30:28;;;;;;;;;;;;;;;5.66;100.00;102772.41;5013629;28;19921;-63
2023/12/15 01:32:54;;;;;;;;;;;;;;;5.63;100.00;102780.50;5014915;28;19971;-63
2023/12/15 01:35:19;;;;;;;;;;;;;;;5.66;100.00;102785.59;5018251;28;19921;-63
2023/12/15 01:37:44;;;;;;;;;;;;;;;5.67;100.00;102781.19;5013711;28;19932;-63
2023/12/15 01:40:09;;;;;;;;;;;;;;;5.67;100.00;102781.19;5017286;28;20003;-63
2023/12/15 01:42:35;;;;;;;;;;;;;;;5.68;100.00;102777.59;5015848;28;19974;-63
2023/12/15 01:45:00;;;;;;;;;;;;;;;5.69;100.00;102779.28;5013035;28;20008;-63
2023/12/15 01:47:25;;;;;;;;;;;;;;;5.69;100.00;102787.22;5013480;28;19931;-63
2023/12/15 01:49:51;;;;;;;;;;;;;;;5.71;100.00;102787.97;5015815;28;20581;-63
2023/12/15 01:52:17;;;;;;;;;;;;;;;5.71;100.00;102795.88;5021304;28;19925;-63
2023/12/15 01:54:42;;;;;;;;;;;;;;;5.72;100.00;102798.41;5017374;28;20487;-63
2023/12/15 01:57:08;;;;;;;;;;;;;;;5.73;100.00;102805.38;5011819;28;19914;-62
2023/12/15 01:59:43;;;;;;;;;;;;;;;5.75;100.00;102800.88;5016158;28;19917;-63
2023/12/15 02:02:08;;;;;;;;;;;;;;;5.75;100.00;102802.66;5017451;28;19917;-63
2023/12/15 02:04:33;;;;;;;;;;;;;;;5.73;100.00;102805.38;5016835;28;19975;-64
2023/12/15 02:06:58;;;;;;;;;;;;;;;5.74;100.00;102801.81;5010253;28;19921;-62
2023/12/15 02:09:23;;;;;;;;;;;;;;;5.75;100.00;102800.88;5020592;28;19979;-63
2023/12/15 02:11:49;;;;;;;;;;;;;;;5.74;100.00;102796.53;5017206;28;19928;-63
2023/12/15 02:14:14;;;;;;;;;;;;;;;5.75;100.00;102795.59;5014391;28;19925;-63
2023/12/15 02:16:39;;;;;;;;;;;;;;;5.74;100.00;102799.16;5017947;28;19963;-63
2023/12/15 02:19:04;;;;;;;;;;;;;;;5.75;100.00;102800.00;5015538;28;20016;-63
2023/12/15 02:21:32;;;;;;;;;;;;;;;5.75;100.00;102808.78;5012783;28;19939;-63
2023/12/15 02:23:57;;;;;;;;;;;;;;;5.77;100.00;102814.78;5007429;28;20000;-63
2023/12/15 02:26:22;;;;;;;;;;;;;;;5.78;100.00;102815.66;5018685;28;19925;-63
2023/12/15 02:28:47;;;;;;;;;;;;;;;5.78;100.00;102820.91;5014690;28;19991;-63
2023/12/15 02:31:12;;;;;;;;;;;;;;;5.79;100.00;102827.91;5018207;28;20411;-63
2023/12/15 02:33:38;;;;;;;;;;;;;;;5.79;100.00;102831.41;5027315;28;20493;-63
2023/12/15 02:36:03;;;;;;;;;;;;;;;5.81;100.00;102834.78;5013002;28;20417;-63
2023/12/15 02:38:28;;;;;;;;;;;;;;;5.83;100.00;102843.47;5013568;28;20640;-63
2023/12/15 02:40:54;;;;;;;;;;;;;;;5.84;100.00;102834.63;5018882;28;19917;-63
2023/12/15 02:43:20;;;;;;;;;;;;;;;5.87;100.00;102838.84;5012173;28;20370;-63
2023/12/15 02:45:45;;;;;;;;;;;;;;;5.88;100.00;102843.19;5010342;28;19917;-63
2023/12/15 02:48:10;;;;;;;;;;;;;;;5.88;100.00;102843.19;5016785;28;19924;-63
2023/12/15 02:50:35;;;;;;;;;;;;;;;5.88;100.00;102853.72;5012408;28;19918;-63
2023/12/15 02:53:00;;;;;;;;;;;;;;;5.88;100.00;102859.84;5011580;28;19921;-63
2023/12/15 02:55:26;;;;;;;;;;;;;;;5.89;100.00;102866.84;5011993;28;19971;-63
2023/12/15 02:57:51;;;;;;;;;;;;;;;5.89;100.00;102873.88;5008249;28;20413;-63
2023/12/15 03:00:16;;;;;;;;;;;;;;;5.90;100.00;102875.63;5010340;28;20457;-63
2023/12/15 03:02:41;;;;;;;;;;;;;;;5.90;100.00;102878.25;5022834;28;19970;-63
2023/12/15 03:05:07;;;;;;;;;;;;;;;5.91;100.00;102874.69;5013695;28;19917;-63
2023/12/15 03:07:32;;;;;;;;;;;;;;;5.91;100.00;102872.03;5006602;28;19918;-63
2023/12/15 03:09:57;;;;;;;;;;;;;;;5.92;100.00;102886.06;5009835;28;19960;-64
2023/12/15 03:12:22;;;;;;;;;;;;;;;5.93;100.00;102885.13;5016827;28;20309;-63
2023/12/15 03:14:48;;;;;;;;;;;;;;;5.93;100.00;102880.69;5013814;28;20671;-63
2023/12/15 03:17:15;;;;;;;;;;;;;;;5.95;100.00;102880.63;5017508;28;19921;-63
2023/12/15 03:19:41;;;;;;;;;;;;;;;5.96;100.00;102887.59;5011692;28;20493;-63
2023/12/15 03:22:06;;;;;;;;;;;;;;;5.96;100.00;102893.72;5013404;28;19929;-63
2023/12/15 03:24:31;;;;;;;;;;;;;;;5.97;100.00;102894.56;5011236;28;19936;-63
2023/12/15 03:26:56;;;;;;;;;;;;;;;5.98;100.00;102898.88;5011883;28;20007;-63
2023/12/15 03:29:22;;;;;;;;;;;;;;;5.98;100.00;102901.53;5015986;28;20759;-63
2023/12/15 03:31:47;;;;;;;;;;;;;;;5.98;100.00;102907.66;5019454;28;19925;-63
2023/12/15 03:34:12;;;;;;;;;;;;;;;5.98;100.00;102901.53;5019253;28;19948;-63
2023/12/15 03:36:38;;;;;;;;;;;;;;;6.02;100.00;102918.88;5016269;28;20533;-63
2023/12/15 03:39:07;;;;;;;;;;;;;;;6.00;100.00;102912.84;5015584;28;20008;-63
2023/12/15 03:41:32;;;;;;;;;;;;;;;6.00;100.00;102926.03;5019914;28;19932;-63
2023/12/15 03:43:58;;;;;;;;;;;;;;;6.00;100.00;102931.28;5009191;28;19925;-63
2023/12/15 03:46:23;;;;;;;;;;;;;;;6.01;100.00;102933.00;5025807;28;19927;-63
2023/12/15 03:48:48;;;;;;;;;;;;;;;6.02;100.00;102932.06;5012414;28;20280;-63
2023/12/15 03:51:13;;;;;;;;;;;;;;;6.01;100.00;102928.56;5011511;28;19922;-63
2023/12/15 03:53:38;;;;;;;;;;;;;;;6.03;100.00;102931.09;5015774;28;19983;-63
2023/12/15 03:56:05;;;;;;;;;;;;;;;6.04;100.00;102943.34;5018360;28;19957;-63
2023/12/15 03:58:30;;;;;;;;;;;;;;;6.05;100.00;102945.06;5015371;28;20302;-63
2023/12/15 04:00:55;;;;;;;;;;;;;;;6.05;100.00;102938.00;5015572;28;19918;-63
2023/12/15 04:03:20;;;;;;;;;;;;;;;6.06;100.00;102944.13;5021268;28;19913;-63
2023/12/15 04:05:46;;;;;;;;;;;;;;;6.09;100.00;102946.59;5009195;28;19931;-63
2023/12/15 04:08:11;;;;;;;;;;;;;;;6.06;100.00;102947.59;5017802;28;20024;-63
2023/12/15 04:10:36;;;;;;;;;;;;;;;6.08;100.00;102955.47;5013580;28;19925;-63
2023/12/15 04:13:01;;;;;;;;;;;;;;;6.07;100.00;102941.41;5012706;28;19957;-63
2023/12/15 04:15:26;;;;;;;;;;;;;;;6.08;100.00;102950.19;5016344;28;19972;-63
2023/12/15 04:17:52;;;;;;;;;;;;;;;6.09;100.00;102946.59;5015855;28;20019;-63
2023/12/15 04:20:17;;;;;;;;;;;;;;;6.10;100.00;102957.06;5012172;28;19921;-63
2023/12/15 04:22:42;;;;;;;;;;;;;;;6.08;100.00;102958.09;5017394;28;19940;-63
2023/12/15 04:25:07;;;;;;;;;;;;;;;6.11;100.00;102963.19;5013009;28;19921;-63
2023/12/15 04:27:33;;;;;;;;;;;;;;;6.11;100.00;102965.81;5009834;28;19921;-63
2023/12/15 04:29:58;;;;;;;;;;;;;;;6.13;100.00;102969.22;5019773;28;19932;-63
2023/12/15 04:32:23;;;;;;;;;;;;;;;6.12;100.00;102967.53;5015001;28;20318;-63
2023/12/15 04:34:48;;;;;;;;;;;;;;;6.13;100.00;102980.63;5021179;28;19928;-63
2023/12/15 04:37:14;;;;;;;;;;;;;;;6.13;100.00;102969.22;5018270;28;19991;-63
2023/12/15 04:39:39;;;;;;;;;;;;;;;6.14;100.00;102976.19;5015986;28;20378;-63
2023/12/15 04:42:05;;;;;;;;;;;;;;;6.16;100.00;102971.69;5021680;28;20559;-63
2023/12/15 04:44:30;;;;;;;;;;;;;;;6.15;100.00;102967.34;5013690;28;19917;-63
2023/12/15 04:46:55;;;;;;;;;;;;;;;6.16;100.00;102963.75;5017612;28;20067;-63
2023/12/15 04:49:21;;;;;;;;;;;;;;;6.16;100.00;102961.97;5021532;28;20481;-63
2023/12/15 04:51:46;;;;;;;;;;;;;;;6.17;100.00;102970.75;5005963;28;20012;-63
2023/12/15 04:54:11;;;;;;;;;;;;;;;6.17;100.00;102974.22;5013406;28;19929;-63
2023/12/15 04:56:36;;;;;;;;;;;;;;;6.18;100.00;102986.47;5016510;28;19970;-63
2023/12/15 04:59:01;;;;;;;;;;;;;;;6.20;100.00;102986.38;5016537;28;19958;-63
2023/12/15 05:01:27;;;;;;;;;;;;;;;6.20;100.00;102984.59;5012393;28;20007;-63
2023/12/15 05:03:52;;;;;;;;;;;;;;;6.23;100.00;102991.47;5016316;28;20322;-63
2023/12/15 05:06:20;;;;;;;;;;;;;;;6.22;100.00;102993.25;5014672;28;20007;-63
2023/12/15 05:08:48;;;;;;;;;;;;;;;6.24;100.00;102990.53;5016497;28;19948;-63
2023/12/15 05:11:14;;;;;;;;;;;;;;;6.24;100.00;102993.19;5016338;28;19921;-63
2023/12/15 05:13:39;;;;;;;;;;;;;;;6.25;100.00;103000.16;5010177;28;19917;-63
2023/12/15 05:16:05;;;;;;;;;;;;;;;6.25;100.00;102992.22;5022441;28;20436;-63
2023/12/15 05:18:30;;;;;;;;;;;;;;;6.28;100.00;102999.13;5019353;28;19925;-63
2023/12/15 05:20:55;;;;;;;;;;;;;;;6.27;100.00;103003.53;5019046;28;19925;-63
2023/12/15 05:23:20;;;;;;;;;;;;;;;6.29;100.00;103006.94;5015966;28;19924;-63
2023/12/15 05:25:46;;;;;;;;;;;;;;;6.30;100.00;103016.56;5022883;28;20369;-63
2023/12/15 05:28:12;;;;;;;;;;;;;;;6.35;100.00;103025.06;5012313;28;20000;-62
2023/12/15 05:30:37;;;;;;;;;;;;;;;6.35;100.00;103027.69;5019941;28;19960;-63
2023/12/15 05:33:03;;;;;;;;;;;;;;;6.36;100.00;103023.25;5020036;28;20379;-63
2023/12/15 05:35:28;;;;;;;;;;;;;;;6.37;100.00;103025.84;5020777;28;19917;-63
2023/12/15 05:37:53;;;;;;;;;;;;;;;6.38;100.00;103030.19;5016918;28;20613;-63
2023/12/15 05:40:18;;;;;;;;;;;;;;;6.40;100.00;103046.78;5016895;28;20624;-63
2023/12/15 05:42:43;;;;;;;;;;;;;;;6.42;100.00;103057.25;5016526;28;19925;-63
2023/12/15 05:45:09;;;;;;;;;;;;;;;6.42;100.00;103052.81;5012013;28;20409;-63
2023/12/15 05:47:38;;;;;;;;;;;;;;;6.43;100.00;103054.50;5019662;28;19925;-63
2023/12/15 05:50:03;;;;;;;;;;;;;;;6.44;100.00;103058.00;5017307;28;19926;-63
2023/12/15 05:52:28;;;;;;;;;;;;;;;6.45;100.00;103057.91;5021458;28;19932;-63
2023/12/15 05:54:53;;;;;;;;;;;;;;;6.45;100.00;103054.41;5022392;28;19929;-63
2023/12/15 05:57:18;;;;;;;;;;;;;;;6.45;100.00;103052.63;5015106;28;19975;-63
2023/12/15 05:59:44;;;;;;;;;;;;;;;6.45;100.00;103055.25;5011437;28;19944;-63
2023/12/15 06:02:09;;;;;;;;;;;;;;;6.46;100.00;103048.19;5013230;28;20600;-64
2023/12/15 06:04:34;;;;;;;;;;;;;;;6.45;100.00;103047.34;5011599;28;19925;-63
2023/12/15 06:07:00;;;;;;;;;;;;;;;6.45;100.00;103042.06;5016836;28;20401;-63
2023/12/15 06:09:25;;;;;;;;;;;;;;;6.45;100.00;103044.72;5013841;28;19934;-63
2023/12/15 06:11:50;;;;;;;;;;;;;;;6.45;100.00;103042.06;5008254;28;20458;-63
2023/12/15 06:14:15;;;;;;;;;;;;;;;6.46;100.00;103048.19;5014929;28;19925;-63
2023/12/15 06:16:41;;;;;;;;;;;;;;;6.48;100.00;103055.09;5015458;28;20011;-63
2023/12/15 06:19:06;;;;;;;;;;;;;;;6.49;100.00;103053.28;5015633;28;19956;-63
2023/12/15 06:21:31;;;;;;;;;;;;;;;6.50;100.00;103053.19;5010015;28;19928;-63
2023/12/15 06:23:57;;;;;;;;;;;;;;;6.52;100.00;103048.69;5014699;28;20044;-63
2023/12/15 06:26:23;;;;;;;;;;;;;;;6.52;100.00;103063.66;5012354;28;19921;-63
2023/12/15 06:28:49;;;;;;;;;;;;;;;6.53;100.00;103068.00;5009059;28;20534;-63
2023/12/15 06:31:15;;;;;;;;;;;;;;;6.54;100.00;103075.00;5011948;28;19963;-63
2023/12/15 06:33:40;;;;;;;;;;;;;;;6.55;100.00;103075.84;5008187;28;20085;-62
2023/12/15 06:36:06;;;;;;;;;;;;;;;6.56;100.00;103086.31;5013099;28;19928;-63
2023/12/15 06:38:31;;;;;;;;;;;;;;;6.55;100.00;103087.25;5014077;28;19921;-63
2023/12/15 06:40:56;;;;;;;;;;;;;;;6.56;100.00;103088.94;5014611;28;19932;-63
2023/12/15 06:43:22;;;;;;;;;;;;;;;6.57;100.00;103081.88;5006832;28;19925;-63
2023/12/15 06:45:48;;;;;;;;;;;;;;;6.56;100.00;103088.09;5013813;28;19921;-62
2023/12/15 06:48:13;;;;;;;;;;;;;;;6.57;100.00;103080.09;5011384;28;20619;-62
2023/12/15 06:50:38;;;;;;;;;;;;;;;6.58;100.00;103094.13;5011571;28;19917;-63
2023/12/15 06:53:03;;;;;;;;;;;;;;;6.58;100.00;103083.56;5016095;28;19925;-63
2023/12/15 06:55:28;;;;;;;;;;;;;;;6.59;100.00;103093.19;5017831;28;20383;-62
2023/12/15 06:57:53;;;;;;;;;;;;;;;6.60;100.00;103100.16;5010625;28;19992;-63
2023/12/15 07:00:19;;;;;;;;;;;;;;;6.62;100.00;103108.84;5012970;28;20067;-63
2023/12/15 07:02:44;;;;;;;;;;;;;;;6.63;100.00;103113.19;5010397;28;19921;-64
2023/12/15 07:05:10;;;;;;;;;;;;;;;6.63;100.00;103110.56;5011798;28;19917;-63
2023/12/15 07:07:36;;;;;;;;;;;;;;;6.63;100.00;103123.75;5010441;28;20509;-63
2023/12/15 07:10:02;;;;;;;;;;;;;;;6.63;100.00;103126.38;5013980;28;19922;-64
2023/12/15 07:12:28;;;;;;;;;;;;;;;6.58;100.00;103128.44;5009571;28;20024;-63
2023/12/15 07:14:53;;;;;;;;;;;;;;;6.64;100.00;103133.38;5010580;28;20091;-63
2023/12/15 07:17:18;;;;;;;;;;;;;;;6.64;100.00;103138.66;5018386;28;19917;-63
2023/12/15 07:19:44;;;;;;;;;;;;;;;6.64;100.00;103134.22;5014614;28;20005;-63
2023/12/15 07:22:09;;;;;;;;;;;;;;;6.63;100.00;103137.81;5013659;28;19982;-63
2023/12/15 07:24:34;;;;;;;;;;;;;;;6.64;100.00;103143.94;5027201;28;19967;-63
2023/12/15 07:26:59;;;;;;;;;;;;;;;6.64;100.00;103149.22;5010571;28;19960;-63
2023/12/15 07:29:24;;;;;;;;;;;;;;;6.63;100.00;103151.00;5019675;28;20024;-63
2023/12/15 07:31:50;;;;;;;;;;;;;;;6.65;100.00;103145.63;5011985;28;19975;-63
2023/12/15 07:34:15;;;;;;;;;;;;;;;6.65;100.00;103151.78;5008494;28;19925;-63
2023/12/15 07:36:40;;;;;;;;;;;;;;;6.65;100.00;103156.19;5008715;28;19917;-63
2023/12/15 07:39:05;;;;;;;;;;;;;;;6.65;100.00;103165.00;5010171;28;20017;-63
2023/12/15 07:41:30;;;;;;;;;;;;;;;6.65;100.00;103167.63;5016580;28;19917;-63
2023/12/15 07:43:56;;;;;;;;;;;;;;;6.62;100.00;103166.94;5014851;28;20516;-63
2023/12/15 07:46:21;;;;;;;;;;;;;;;6.66;100.00;103163.22;5018851;28;19925;-63
2023/12/15 07:48:46;;;;;;;;;;;;;;;6.65;100.00;103167.63;5018557;28;19917;-63
2023/12/15 07:51:19;;;;;;;;;;;;;;;6.66;100.00;103181.69;5011083;28;19987;-63
2023/12/15 07:53:46;;;;;;;;;;;;;;;6.67;100.00;103186.03;5019107;28;19921;-63
2023/12/15 07:56:21;;;;;;;;;;;;;;;6.69;100.00;103194.72;5004211;28;19922;-63
2023/12/15 07:58:49;;;;;;;;;;;;;;;6.71;100.00;103192.84;5019028;28;19929;-63
2023/12/15 08:01:14;;;;;;;;;;;;;;;6.73;100.00;103196.22;5004541;28;19922;-64
2023/12/15 08:03:39;;;;;;;;;;;;;;;6.74;100.00;103203.22;5009785;28;20463;-63
2023/12/15 08:06:05;;;;;;;;;;;;;;;6.76;100.00;103201.34;5020203;28;19925;-63
2023/12/15 08:08:30;;;;;;;;;;;;;;;6.77;100.00;103197.75;5017092;28;19924;-63
2023/12/15 08:10:55;;;;;;;;;;;;;;;6.80;100.00;103200.22;5018043;28;19925;-63
2023/12/15 08:13:20;;;;;;;;;;;;;;;6.80;100.00;103200.22;5015950;28;19929;-63
2023/12/15 08:15:46;;;;;;;;;;;;;;;6.79;100.00;103212.56;5017397;28;20382;-63
2023/12/15 08:18:11;;;;;;;;;;;;;;;6.81;100.00;103218.63;5012918;28;20023;-63
2023/12/15 08:20:36;;;;;;;;;;;;;;;6.85;100.00;103232.50;5011513;28;19917;-63
2023/12/15 08:23:02;;;;;;;;;;;;;;;6.83;100.00;103226.44;5019602;28;19928;-63
2023/12/15 08:25:27;;;;;;;;;;;;;;;6.84;100.00;103226.34;5018518;28;19990;-63
2023/12/15 08:27:52;;;;;;;;;;;;;;;6.83;100.00;103229.94;5012011;28;20016;-63
2023/12/15 08:30:17;;;;;;;;;;;;;;;6.84;100.00;103241.34;5020552;28;20381;-63
2023/12/15 08:32:42;;;;;;;;;;;;;;;6.86;100.00;103249.19;5017491;28;19924;-62
2023/12/15 08:35:07;;;;;;;;;;;;;;;6.86;100.00;103257.13;5010811;28;20012;-63
2023/12/15 08:37:33;;;;;;;;;;;;;;;6.87;100.00;103267.59;5010979;28;19921;-63
2023/12/15 08:39:58;;;;;;;;;;;;;;;6.85;100.00;103264.19;5013774;28;20523;-63
2023/12/15 08:42:23;;;;;;;;;;;;;;;6.92;100.00;103275.25;5012231;28;19917;-63
2023/12/15 08:44:49;;;;;;;;;;;;;;;6.94;100.00;103279.53;5004209;28;19917;-63
2023/12/15 08:47:14;;;;;;;;;;;;;;;6.97;100.00;103283.78;5014051;28;20440;-63
2023/12/15 08:49:39;;;;;;;;;;;;;;;6.99;100.00;103288.03;5019916;28;19916;-63
2023/12/15 08:52:04;;;;;;;;;;;;;;;7.00;100.00;103295.03;5006852;28;20478;-63
2023/12/15 08:54:30;;;;;;;;;;;;;;;7.02;100.00;103282.59;5025017;28;19923;-63
2023/12/15 08:56:55;;;;;;;;;;;;;;;7.05;100.00;103286.84;5009348;28;19921;-63
2023/12/15 08:59:21;;;;;;;;;;;;;;;7.05;100.00;103287.69;5014388;28;20023;-63
2023/12/15 09:01:46;;;;;;;;;;;;;;;7.07;100.00;103288.44;5014576;28;19932;-63
2023/12/15 09:04:11;;;;;;;;;;;;;;;7.08;100.00;103289.31;5021879;28;19926;-63
2023/12/15 09:06:37;;;;;;;;;;;;;;;7.09;100.00;103291.84;5010010;28;19953;-63
2023/12/15 09:09:02;;;;;;;;;;;;;;;7.11;100.00;103294.41;5019909;28;20433;-62
2023/12/15 09:11:27;;;;;;;;;;;;;;;7.10;100.00;103285.63;5013826;28;19921;-63
2023/12/15 09:13:53;;;;;;;;;;;;;;;7.11;100.00;103289.97;5024920;28;20142;-63
2023/12/15 09:16:18;;;;;;;;;;;;;;;7.13;100.00;103292.53;5013414;28;19975;-63
2023/12/15 09:18:43;;;;;;;;;;;;;;;7.14;100.00;103297.72;5016998;28;19921;-63
2023/12/15 09:21:08;;;;;;;;;;;;;;;7.14;100.00;103308.28;5012310;28;20497;-63
2023/12/15 09:23:33;;;;;;;;;;;;;;;7.18;100.00;103313.41;5011336;28;19975;-63
2023/12/15 09:25:59;;;;;;;;;;;;;;;7.21;100.00;103321.16;5012902;28;19929;-63
2023/12/15 09:28:24;;;;;;;;;;;;;;;7.21;100.00;103322.00;5013504;28;20036;-63
2023/12/15 09:30:49;;;;;;;;;;;;;;;7.21;100.00;103329.06;5023650;28;19920;-63
2023/12/15 09:33:14;;;;;;;;;;;;;;;7.23;100.00;103329.84;5011642;28;20523;-63
2023/12/15 09:35:39;;;;;;;;;;;;;;;7.24;100.00;103339.50;5012596;28;20540;-63
2023/12/15 09:38:05;;;;;;;;;;;;;;;7.23;100.00;103350.97;5015892;28;19956;-63
2023/12/15 09:40:31;;;;;;;;;;;;;;;7.23;100.00;103357.16;5015391;28;19917;-63
2023/12/15 09:42:57;;;;;;;;;;;;;;;7.24;100.00;103363.28;5006771;28;19921;-63
2023/12/15 09:45:22;;;;;;;;;;;;;;;7.24;100.00;103364.13;5017603;28;19917;-63
2023/12/15 09:47:47;;;;;;;;;;;;;;;7.25;100.00;103375.56;5012293;28;20849;-63
2023/12/15 09:50:15;;;;;;;;;;;;;;;7.27;100.00;103379.81;5016546;28;19917;-63
2023/12/15 09:52:40;;;;;;;;;;;;;;;7.26;100.00;103378.13;5021632;28;19960;-63
2023/12/15 09:55:06;;;;;;;;;;;;;;;7.29;100.00;103387.66;5014224;28;20555;-63
2023/12/15 09:57:32;;;;;;;;;;;;;;;7.31;100.00;103388.41;5017502;28;20421;-63
2023/12/15 09:59:58;;;;;;;;;;;;;;;7.32;100.00;103384.84;5021977;28;19920;-63
2023/12/15 10:02:23;;;;;;;;;;;;;;;7.35;100.00;103392.59;5013509;28;20017;-63
2023/12/15 10:04:48;;;;;;;;;;;;;;;7.35;100.00;103400.53;5016018;28;19917;-63
2023/12/15 10:07:14;;;;;;;;;;;;;;;7.37;100.00;103393.34;5021447;28;19921;-63
2023/12/15 10:09:39;;;;;;;;;;;;;;;7.37;100.00;103399.50;5016760;28;19927;-63
2023/12/15 10:12:08;;;;;;;;;;;;;;;7.39;100.00;103409.97;5010127;28;20391;-64
2023/12/15 10:14:35;;;;;;;;;;;;;;;7.39;100.00;103413.47;5015676;28;19951;-63
2023/12/15 10:17:00;;;;;;;;;;;;;;;7.39;100.00;103416.13;5016921;28;20048;-63
2023/12/15 10:19:25;;;;;;;;;;;;;;;7.41;100.00;103413.38;5012424;28;20020;-63
2023/12/15 10:21:50;;;;;;;;;;;;;;;7.41;100.00;103421.31;5013278;28;20428;-63
2023/12/15 10:24:19;;;;;;;;;;;;;;;7.43;100.00;103427.38;5021674;28;19921;-63
2023/12/15 10:26:44;;;;;;;;;;;;;;;7.44;100.00;103431.72;5010240;28;19920;-63
2023/12/15 10:29:09;;;;;;;;;;;;;;;7.46;100.00;103446.56;5009697;28;19924;-63
2023/12/15 10:31:37;;;;;;;;;;;;;;;7.47;100.00;103444.75;5009702;28;19922;-63
2023/12/15 10:34:03;;;;;;;;;;;;;;;7.49;100.00;103450.81;5004046;28;19928;-63
2023/12/15 10:36:29;;;;;;;;;;;;;;;7.52;100.00;103452.44;5016944;28;19920;-63
2023/12/15 10:38:54;;;;;;;;;;;;;;;7.54;100.00;103454.06;5010626;28;20397;-63
2023/12/15 10:41:20;;;;;;;;;;;;;;;7.54;100.00;103454.06;5005177;28;19918;-63
2023/12/15 10:43:45;;;;;;;;;;;;;;;7.57;100.00;103460.97;5012732;28;19932;-63
2023/12/15 10:46:11;;;;;;;;;;;;;;;7.56;100.00;103459.28;5009482;28;19922;-63
2023/12/15 10:48:38;;;;;;;;;;;;;;;7.57;100.00;103468.91;5017469;28;19928;-63
2023/12/15 10:51:04;;;;;;;;;;;;;;;7.58;100.00;103475.91;5011854;28;20578;-63
2023/12/15 10:53:31;;;;;;;;;;;;;;;7.58;100.00;103467.97;5015461;28;19997;-63
2023/12/15 10:55:56;;;;;;;;;;;;;;;7.61;100.00;103473.94;5011359;28;19928;-63
2023/12/15 10:58:22;;;;;;;;;;;;;;;7.61;100.00;103479.22;5011754;28;19917;-63
2023/12/15 11:00:47;;;;;;;;;;;;;;;7.61;100.00;103479.22;5012916;28;19927;-63
2023/12/15 11:03:13;;;;;;;;;;;;;;;7.61;100.00;103497.75;5013545;28;20577;-63
2023/12/15 11:05:41;;;;;;;;;;;;;;;7.63;100.00;103497.66;5010544;28;20843;-63
2023/12/15 11:08:07;;;;;;;;;;;;;;;7.64;100.00;103502.84;5010982;28;19979;-64
2023/12/15 11:10:32;;;;;;;;;;;;;;;7.64;100.00;103502.84;5011747;28;19921;-63
2023/12/15 11:12:57;;;;;;;;;;;;;;;7.65;100.00;103493.97;5007478;28;19929;-63
2023/12/15 11:15:23;;;;;;;;;;;;;;;7.66;100.00;103500.13;5017328;28;19983;-63
2023/12/15 11:17:52;;;;;;;;;;;;;;;7.67;100.00;103504.47;5017889;28;19925;-63
2023/12/15 11:20:22;;;;;;;;;;;;;;;7.68;100.00;103508.81;5014772;28;19928;-63
2023/12/15 11:22:56;;;;;;;;;;;;;;;7.72;100.00;103515.63;5007266;28;20013;-63
2023/12/15 11:25:24;;;;;;;;;;;;;;;7.73;100.00;103510.25;5018432;28;19921;-63
2023/12/15 11:28:08;;;;;;;;;;;;;;;7.75;100.00;103503.09;5014796;28;20012;-63
2023/12/15 11:30:40;;;;;;;;;;;;;;;7.78;100.00;103496.75;5012736;28;19975;-63
2023/12/15 11:33:26;;;;;;;;;;;;;;;7.77;100.00;103498.56;5011126;28;19967;-63
2023/12/15 11:35:52;;;;;;;;;;;;;;;7.82;100.00;103497.47;5015268;28;19964;-63
2023/12/15 11:38:19;;;;;;;;;;;;;;;7.84;100.00;103495.59;5016002;28;20012;-64
2023/12/15 11:40:45;;;;;;;;;;;;;;;7.87;100.00;103488.31;5018057;28;19921;-63
2023/12/15 11:43:10;;;;;;;;;;;;;;;7.89;100.00;103480.31;5015904;28;19929;-63
2023/12/15 11:45:35;;;;;;;;;;;;;;;7.92;100.00;103474.84;5016772;28;19924;-63
2023/12/15 11:48:00;;;;;;;;;;;;;;;7.92;100.00;103470.38;5020698;28;20405;-63
2023/12/15 11:50:26;;;;;;;;;;;;;;;7.94;100.00;103462.38;5023371;28;19925;-63
2023/12/15 11:52:51;;;;;;;;;;;;;;;7.95;100.00;103480.78;5013771;28;19925;-63
2023/12/15 11:55:19;;;;;;;;;;;;;;;7.97;100.00;103462.19;5013588;28;19921;-63
2023/12/15 11:57:45;;;;;;;;;;;;;;;7.98;100.00;103464.75;5016205;28;20577;-63
2023/12/15 12:00:13;;;;;;;;;;;;;;;8.00;100.00;103465.50;5016975;28;19921;-64
2023/12/15 12:02:38;;;;;;;;;;;;;;;8.03;100.00;103454.72;5019948;28;19925;-63
2023/12/15 12:05:07;;;;;;;;;;;;;;;8.06;100.00;103451.91;5021480;28;19932;-63
2023/12/15 12:07:32;;;;;;;;;;;;;;;8.08;100.00;103450.00;5013018;28;19939;-63
2023/12/15 12:09:58;;;;;;;;;;;;;;;8.13;100.00;103456.84;5008476;28;19921;-63
2023/12/15 12:12:23;;;;;;;;;;;;;;;8.15;100.00;103449.69;5006423;28;20351;-64
2023/12/15 12:14:48;;;;;;;;;;;;;;;8.22;100.00;103446.56;5023488;28;19925;-63
2023/12/15 12:17:13;;;;;;;;;;;;;;;8.29;100.00;103445.25;5015118;28;19928;-63
2023/12/15 12:19:42;;;;;;;;;;;;;;;8.32;100.00;103452.16;5014382;28;20020;-63
2023/12/15 12:22:11;;;;;;;;;;;;;;;8.35;100.00;103476.69;5023097;28;19917;-63
2023/12/15 12:24:37;;;;;;;;;;;;;;;8.41;100.00;103498.47;5012540;28;19921;-63
2023/12/15 12:27:02;;;;;;;;;;;;;;;8.45;100.00;103497.34;5019696;28;19925;-63